sensor_id;sensor_type;location;lat;lon;timestamp;pressure;altitude;pressure_sealevel;temperature;humidity
11077;BME280;5591;42.626;23.380;2023-07-13T00:00:35;94474.00;;;25.20;78.81
11077;BME280;5591;42.626;23.380;2023-07-13T00:03:02;94479.88;;;25.12;80.82
11077;BME280;5591;42.626;23.380;2023-07-13T00:05:28;94478.31;;;25.06;80.74
11077;BME280;5591;42.626;23.380;2023-07-13T00:07:56;94470.25;;;25.06;79.68
11077;BME280;5591;42.626;23.380;2023-07-13T00:10:23;94476.69;;;25.05;79.26
11077;BME280;5591;42.626;23.380;2023-07-13T00:12:51;94480.44;;;25.14;79.93
11077;BME280;5591;42.626;23.380;2023-07-13T00:15:23;94462.44;;;25.05;80.83
11077;BME280;5591;42.626;23.380;2023-07-13T00:17:50;94467.28;;;25.08;83.04
11077;BME280;5591;42.626;23.380;2023-07-13T00:20:17;94462.72;;;24.98;83.29
11077;BME280;5591;42.626;23.380;2023-07-13T00:22:47;94459.25;;;24.88;81.74
11077;BME280;5591;42.626;23.380;2023-07-13T00:25:16;94469.72;;;24.89;82.63
11077;BME280;5591;42.626;23.380;2023-07-13T00:27:43;94475.66;;;24.81;84.98
11077;BME280;5591;42.626;23.380;2023-07-13T00:30:10;94483.41;;;24.63;89.45
11077;BME280;5591;42.626;23.380;2023-07-13T00:32:37;94468.88;;;24.39;92.87
11077;BME280;5591;42.626;23.380;2023-07-13T00:35:05;94474.44;;;24.12;96.71
11077;BME280;5591;42.626;23.380;2023-07-13T00:37:32;94448.97;;;24.10;97.62
11077;BME280;5591;42.626;23.380;2023-07-13T00:40:01;94466.09;;;23.99;99.11
11077;BME280;5591;42.626;23.380;2023-07-13T00:42:30;94465.84;;;24.05;99.04
11077;BME280;5591;42.626;23.380;2023-07-13T00:45:01;94457.28;;;24.13;98.71
11077;BME280;5591;42.626;23.380;2023-07-13T00:47:28;94466.09;;;23.99;99.32
11077;BME280;5591;42.626;23.380;2023-07-13T00:49:55;94462.06;;;23.91;99.73
11077;BME280;5591;42.626;23.380;2023-07-13T00:52:22;94465.00;;;23.85;100.00
11077;BME280;5591;42.626;23.380;2023-07-13T00:54:49;94463.59;;;23.77;100.00
11077;BME280;5591;42.626;23.380;2023-07-13T00:57:18;94456.59;;;23.71;100.00
11077;BME280;5591;42.626;23.380;2023-07-13T00:59:49;94450.72;;;23.74;100.00
11077;BME280;5591;42.626;23.380;2023-07-13T01:02:17;94453.13;;;23.71;100.00
11077;BME280;5591;42.626;23.380;2023-07-13T01:04:44;94443.97;;;23.62;100.00
11077;BME280;5591;42.626;23.380;2023-07-13T01:07:11;94448.56;;;23.71;99.63
11077;BME280;5591;42.626;23.380;2023-07-13T01:09:39;94449.88;;;23.64;99.01
11077;BME280;5591;42.626;23.380;2023-07-13T01:12:07;94445.09;;;23.71;99.26
11077;BME280;5591;42.626;23.380;2023-07-13T01:14:34;94445.56;;;23.58;99.00
11077;BME280;5591;42.626;23.380;2023-07-13T01:17:03;94439.66;;;23.56;99.57
11077;BME280;5591;42.626;23.380;2023-07-13T01:19:35;94449.81;;;23.49;100.00
11077;BME280;5591;42.626;23.380;2023-07-13T01:22:04;94447.69;;;23.51;100.00
11077;BME280;5591;42.626;23.380;2023-07-13T01:24:34;94455.69;;;23.46;100.00
11077;BME280;5591;42.626;23.380;2023-07-13T01:27:01;94469.38;;;23.44;100.00
11077;BME280;5591;42.626;23.380;2023-07-13T01:29:28;94439.31;;;23.37;100.00
11077;BME280;5591;42.626;23.380;2023-07-13T01:31:55;94453.25;;;23.34;100.00
11077;BME280;5591;42.626;23.380;2023-07-13T01:34:22;94450.03;;;23.37;100.00
11077;BME280;5591;42.626;23.380;2023-07-13T01:36:49;94454.88;;;23.04;100.00
11077;BME280;5591;42.626;23.380;2023-07-13T01:39:20;94420.00;;;22.94;100.00
11077;BME280;5591;42.626;23.380;2023-07-13T01:41:47;94453.03;;;23.04;100.00
11077;BME280;5591;42.626;23.380;2023-07-13T01:44:14;94452.88;;;23.16;100.00
11077;BME280;5591;42.626;23.380;2023-07-13T01:46:41;94456.09;;;23.18;100.00
11077;BME280;5591;42.626;23.380;2023-07-13T01:49:07;94448.75;;;23.03;100.00
11077;BME280;5591;42.626;23.380;2023-07-13T01:51:34;94447.13;;;23.02;100.00
11077;BME280;5591;42.626;23.380;2023-07-13T01:54:01;94447.19;;;23.12;100.00
11077;BME280;5591;42.626;23.380;2023-07-13T01:56:29;94449.88;;;23.12;100.00
11077;BME280;5591;42.626;23.380;2023-07-13T01:58:56;94423.50;;;22.95;100.00
11077;BME280;5591;42.626;23.380;2023-07-13T02:01:23;94447.06;;;22.93;100.00
11077;BME280;5591;42.626;23.380;2023-07-13T02:03:50;94456.47;;;22.95;100.00
11077;BME280;5591;42.626;23.380;2023-07-13T02:06:17;94454.81;;;22.94;100.00
11077;BME280;5591;42.626;23.380;2023-07-13T02:08:43;94449.97;;;22.86;100.00
11077;BME280;5591;42.626;23.380;2023-07-13T02:11:10;94442.44;;;22.83;100.00
11077;BME280;5591;42.626;23.380;2023-07-13T02:13:38;94450.22;;;22.85;100.00
11077;BME280;5591;42.626;23.380;2023-07-13T02:16:05;94462.00;;;22.84;100.00
11077;BME280;5591;42.626;23.380;2023-07-13T02:18:32;94449.63;;;22.78;100.00
11077;BME280;5591;42.626;23.380;2023-07-13T02:20:59;94440.75;;;22.72;100.00
11077;BME280;5591;42.626;23.380;2023-07-13T02:23:26;94425.38;;;22.53;100.00
11077;BME280;5591;42.626;23.380;2023-07-13T02:25:55;94451.69;;;22.66;100.00
11077;BME280;5591;42.626;23.380;2023-07-13T02:28:22;94485.63;;;22.60;100.00
11077;BME280;5591;42.626;23.380;2023-07-13T02:30:50;94456.47;;;22.59;100.00
11077;BME280;5591;42.626;23.380;2023-07-13T02:33:17;94459.03;;;22.80;100.00
11077;BME280;5591;42.626;23.380;2023-07-13T02:35:44;94471.88;;;22.47;100.00
11077;BME280;5591;42.626;23.380;2023-07-13T02:38:10;94497.06;;;22.51;100.00
11077;BME280;5591;42.626;23.380;2023-07-13T02:40:37;94463.97;;;22.98;100.00
11077;BME280;5591;42.626;23.380;2023-07-13T02:43:04;94461.00;;;22.95;100.00
11077;BME280;5591;42.626;23.380;2023-07-13T02:45:31;94473.38;;;23.01;100.00
11077;BME280;5591;42.626;23.380;2023-07-13T02:47:59;94469.19;;;22.78;100.00
11077;BME280;5591;42.626;23.380;2023-07-13T02:50:27;94481.06;;;22.92;100.00
11077;BME280;5591;42.626;23.380;2023-07-13T02:52:54;94468.78;;;22.96;100.00
11077;BME280;5591;42.626;23.380;2023-07-13T02:55:20;94461.53;;;22.92;100.00
11077;BME280;5591;42.626;23.380;2023-07-13T02:57:47;94468.44;;;22.88;100.00
11077;BME280;5591;42.626;23.380;2023-07-13T03:00:15;94466.50;;;22.78;100.00
11077;BME280;5591;42.626;23.380;2023-07-13T03:02:42;94457.72;;;22.88;100.00
11077;BME280;5591;42.626;23.380;2023-07-13T03:05:09;94464.50;;;22.59;100.00
11077;BME280;5591;42.626;23.380;2023-07-13T03:07:38;94464.28;;;22.70;100.00
11077;BME280;5591;42.626;23.380;2023-07-13T03:10:06;94471.84;;;22.78;100.00
11077;BME280;5591;42.626;23.380;2023-07-13T03:12:33;94470.03;;;22.89;100.00
11077;BME280;5591;42.626;23.380;2023-07-13T03:14:59;94475.41;;;22.89;100.00
11077;BME280;5591;42.626;23.380;2023-07-13T03:17:26;94471.69;;;22.90;100.00
11077;BME280;5591;42.626;23.380;2023-07-13T03:19:53;94470.03;;;22.84;100.00
11077;BME280;5591;42.626;23.380;2023-07-13T03:22:21;94476.75;;;22.86;100.00
11077;BME280;5591;42.626;23.380;2023-07-13T03:24:48;94471.78;;;22.68;100.00
11077;BME280;5591;42.626;23.380;2023-07-13T03:27:15;94472.78;;;22.62;100.00
11077;BME280;5591;42.626;23.380;2023-07-13T03:29:42;94480.22;;;22.87;100.00
11077;BME280;5591;42.626;23.380;2023-07-13T03:32:09;94496.91;;;22.98;100.00
11077;BME280;5591;42.626;23.380;2023-07-13T03:37:03;94476.59;;;23.07;100.00
11077;BME280;5591;42.626;23.380;2023-07-13T03:39:31;94472.72;;;22.89;100.00
11077;BME280;5591;42.626;23.380;2023-07-13T03:41:58;94474.97;;;23.02;100.00
11077;BME280;5591;42.626;23.380;2023-07-13T03:44:25;94477.59;;;22.92;100.00
11077;BME280;5591;42.626;23.380;2023-07-13T03:46:52;94477.88;;;22.95;100.00
11077;BME280;5591;42.626;23.380;2023-07-13T03:49:19;94434.09;;;22.75;100.00
11077;BME280;5591;42.626;23.380;2023-07-13T03:51:46;94472.31;;;23.02;100.00
11077;BME280;5591;42.626;23.380;2023-07-13T03:54:12;94461.81;;;22.95;100.00
11077;BME280;5591;42.626;23.380;2023-07-13T03:56:41;94467.59;;;23.13;100.00
11077;BME280;5591;42.626;23.380;2023-07-13T03:59:07;94468.25;;;23.35;100.00
11077;BME280;5591;42.626;23.380;2023-07-13T04:01:34;94472.28;;;23.43;100.00
11077;BME280;5591;42.626;23.380;2023-07-13T04:04:01;94468.84;;;23.52;100.00
11077;BME280;5591;42.626;23.380;2023-07-13T04:06:29;94484.38;;;23.45;100.00
11077;BME280;5591;42.626;23.380;2023-07-13T04:08:58;94401.00;;;23.37;100.00
11077;BME280;5591;42.626;23.380;2023-07-13T04:11:27;94468.53;;;24.00;100.00
11077;BME280;5591;42.626;23.380;2023-07-13T04:13:55;94469.91;;;24.13;100.00
11077;BME280;5591;42.626;23.380;2023-07-13T04:16:22;94466.97;;;24.24;100.00
11077;BME280;5591;42.626;23.380;2023-07-13T04:18:49;94445.50;;;24.24;100.00
11077;BME280;5591;42.626;23.380;2023-07-13T04:21:20;94475.09;;;24.59;100.00
11077;BME280;5591;42.626;23.380;2023-07-13T04:23:47;94471.06;;;24.57;100.00
11077;BME280;5591;42.626;23.380;2023-07-13T04:26:14;94465.41;;;24.78;100.00
11077;BME280;5591;42.626;23.380;2023-07-13T04:28:41;94480.44;;;24.89;100.00
11077;BME280;5591;42.626;23.380;2023-07-13T04:31:09;94481.81;;;24.97;100.00
11077;BME280;5591;42.626;23.380;2023-07-13T04:33:36;94424.09;;;24.64;100.00
11077;BME280;5591;42.626;23.380;2023-07-13T04:36:04;94475.34;;;24.83;100.00
11077;BME280;5591;42.626;23.380;2023-07-13T04:38:32;94481.25;;;24.75;100.00
11077;BME280;5591;42.626;23.380;2023-07-13T04:41:00;94413.88;;;24.56;100.00
11077;BME280;5591;42.626;23.380;2023-07-13T04:43:28;94489.59;;;25.13;100.00
11077;BME280;5591;42.626;23.380;2023-07-13T04:45:55;94442.31;;;24.87;100.00
11077;BME280;5591;42.626;23.380;2023-07-13T04:48:24;94490.69;;;25.02;100.00
11077;BME280;5591;42.626;23.380;2023-07-13T04:50:54;94491.19;;;25.09;100.00
11077;BME280;5591;42.626;23.380;2023-07-13T04:53:22;94492.28;;;24.88;100.00
11077;BME280;5591;42.626;23.380;2023-07-13T04:55:49;94492.53;;;24.92;100.00
11077;BME280;5591;42.626;23.380;2023-07-13T04:58:16;94425.13;;;24.48;100.00
11077;BME280;5591;42.626;23.380;2023-07-13T05:00:43;94501.41;;;25.02;100.00
11077;BME280;5591;42.626;23.380;2023-07-13T05:03:10;94451.97;;;24.98;98.73
11077;BME280;5591;42.626;23.380;2023-07-13T05:05:38;94509.44;;;25.12;99.03
11077;BME280;5591;42.626;23.380;2023-07-13T05:08:05;94503.84;;;25.29;98.01
11077;BME280;5591;42.626;23.380;2023-07-13T05:10:32;94507.84;;;25.46;97.20
11077;BME280;5591;42.626;23.380;2023-07-13T05:12:59;94515.84;;;25.66;95.58
11077;BME280;5591;42.626;23.380;2023-07-13T05:15:26;94506.69;;;25.62;95.42
11077;BME280;5591;42.626;23.380;2023-07-13T05:17:53;94510.97;;;25.73;95.32
11077;BME280;5591;42.626;23.380;2023-07-13T05:20:20;94527.34;;;25.81;95.02
11077;BME280;5591;42.626;23.380;2023-07-13T05:22:48;94516.56;;;25.91;95.48
11077;BME280;5591;42.626;23.380;2023-07-13T05:25:16;94516.00;;;26.04;96.48
11077;BME280;5591;42.626;23.380;2023-07-13T05:27:43;94515.81;;;26.39;94.71
11077;BME280;5591;42.626;23.380;2023-07-13T05:30:11;94518.78;;;26.38;94.96
11077;BME280;5591;42.626;23.380;2023-07-13T05:32:38;94487.72;;;26.55;92.68
11077;BME280;5591;42.626;23.380;2023-07-13T05:35:06;94512.81;;;26.89;91.22
11077;BME280;5591;42.626;23.380;2023-07-13T05:37:33;94510.75;;;27.10;90.57
11077;BME280;5591;42.626;23.380;2023-07-13T05:40:01;94515.19;;;27.29;90.45
11077;BME280;5591;42.626;23.380;2023-07-13T05:42:29;94517.41;;;27.51;88.75
11077;BME280;5591;42.626;23.380;2023-07-13T05:44:56;94531.25;;;27.68;86.99
11077;BME280;5591;42.626;23.380;2023-07-13T05:47:23;94524.53;;;27.65;87.24
11077;BME280;5591;42.626;23.380;2023-07-13T05:49:50;94525.56;;;27.69;87.31
11077;BME280;5591;42.626;23.380;2023-07-13T05:52:17;94530.16;;;27.97;86.55
11077;BME280;5591;42.626;23.380;2023-07-13T05:54:44;94511.56;;;28.14;86.04
11077;BME280;5591;42.626;23.380;2023-07-13T05:57:12;94516.69;;;28.16;87.01
11077;BME280;5591;42.626;23.380;2023-07-13T05:59:39;94521.16;;;28.25;86.86
11077;BME280;5591;42.626;23.380;2023-07-13T06:02:08;94518.81;;;28.42;86.02
11077;BME280;5591;42.626;23.380;2023-07-13T06:04:35;94505.75;;;28.49;84.76
11077;BME280;5591;42.626;23.380;2023-07-13T06:07:02;94514.38;;;28.51;85.93
11077;BME280;5591;42.626;23.380;2023-07-13T06:09:29;94461.06;;;28.38;84.31
11077;BME280;5591;42.626;23.380;2023-07-13T06:11:56;94502.66;;;28.74;84.00
11077;BME280;5591;42.626;23.380;2023-07-13T06:14:24;94497.41;;;29.01;82.32
11077;BME280;5591;42.626;23.380;2023-07-13T06:16:51;94498.66;;;29.22;81.21
11077;BME280;5591;42.626;23.380;2023-07-13T06:19:18;94505.72;;;29.04;83.39
11077;BME280;5591;42.626;23.380;2023-07-13T06:21:45;94504.91;;;29.22;81.98
11077;BME280;5591;42.626;23.380;2023-07-13T06:24:12;94514.91;;;29.54;80.48
11077;BME280;5591;42.626;23.380;2023-07-13T06:26:39;94510.03;;;29.56;80.33
11077;BME280;5591;42.626;23.380;2023-07-13T06:29:06;94499.09;;;29.61;79.23
11077;BME280;5591;42.626;23.380;2023-07-13T06:31:34;94507.94;;;29.80;76.51
11077;BME280;5591;42.626;23.380;2023-07-13T06:34:01;94510.38;;;30.08;74.73
11077;BME280;5591;42.626;23.380;2023-07-13T06:36:28;94512.06;;;29.91;73.00
11077;BME280;5591;42.626;23.380;2023-07-13T06:38:54;94510.66;;;30.07;70.62
11077;BME280;5591;42.626;23.380;2023-07-13T06:41:21;94499.63;;;30.03;69.83
11077;BME280;5591;42.626;23.380;2023-07-13T06:43:51;94430.22;;;29.94;66.96
11077;BME280;5591;42.626;23.380;2023-07-13T06:46:19;94509.59;;;30.08;70.04
11077;BME280;5591;42.626;23.380;2023-07-13T06:48:48;94508.84;;;29.89;71.30
11077;BME280;5591;42.626;23.380;2023-07-13T06:51:14;94483.78;;;29.83;72.16
11077;BME280;5591;42.626;23.380;2023-07-13T06:53:41;94505.63;;;30.00;71.73
11077;BME280;5591;42.626;23.380;2023-07-13T06:56:09;94510.66;;;30.34;69.21
11077;BME280;5591;42.626;23.380;2023-07-13T06:58:36;94458.47;;;30.01;70.42
11077;BME280;5591;42.626;23.380;2023-07-13T07:01:04;94501.13;;;30.23;71.40
11077;BME280;5591;42.626;23.380;2023-07-13T07:03:31;94492.38;;;30.66;65.32
11077;BME280;5591;42.626;23.380;2023-07-13T07:06:05;94511.63;;;30.51;67.32
11077;BME280;5591;42.626;23.380;2023-07-13T07:08:33;94502.78;;;30.59;67.62
11077;BME280;5591;42.626;23.380;2023-07-13T07:11:00;94508.97;;;30.87;67.24
11077;BME280;5591;42.626;23.380;2023-07-13T07:13:27;94511.13;;;30.98;66.02
11077;BME280;5591;42.626;23.380;2023-07-13T07:15:55;94509.53;;;30.62;70.38
11077;BME280;5591;42.626;23.380;2023-07-13T07:18:22;94510.03;;;30.64;70.81
11077;BME280;5591;42.626;23.380;2023-07-13T07:20:49;94505.09;;;31.01;68.43
11077;BME280;5591;42.626;23.380;2023-07-13T07:23:17;94508.88;;;31.14;66.77
11077;BME280;5591;42.626;23.380;2023-07-13T07:25:45;94514.44;;;31.61;63.78
11077;BME280;5591;42.626;23.380;2023-07-13T07:28:14;94500.97;;;31.69;61.98
11077;BME280;5591;42.626;23.380;2023-07-13T07:30:43;94510.38;;;32.02;60.47
11077;BME280;5591;42.626;23.380;2023-07-13T07:33:10;94507.94;;;32.31;58.59
11077;BME280;5591;42.626;23.380;2023-07-13T07:35:37;94506.03;;;32.40;56.94
11077;BME280;5591;42.626;23.380;2023-07-13T07:38:04;94505.34;;;32.26;55.69
11077;BME280;5591;42.626;23.380;2023-07-13T07:40:36;94503.38;;;32.18;56.96
11077;BME280;5591;42.626;23.380;2023-07-13T07:43:03;94500.75;;;32.35;55.47
11077;BME280;5591;42.626;23.380;2023-07-13T07:45:30;94500.75;;;32.44;54.99
11077;BME280;5591;42.626;23.380;2023-07-13T07:47:57;94498.97;;;32.22;57.61
11077;BME280;5591;42.626;23.380;2023-07-13T07:50:24;94495.00;;;31.98;59.67
11077;BME280;5591;42.626;23.380;2023-07-13T07:52:51;94513.50;;;32.26;58.98
11077;BME280;5591;42.626;23.380;2023-07-13T07:55:18;94491.31;;;32.41;58.38
11077;BME280;5591;42.626;23.380;2023-07-13T07:57:47;94481.25;;;32.33;59.79
11077;BME280;5591;42.626;23.380;2023-07-13T08:00:15;94478.44;;;32.72;57.83
11077;BME280;5591;42.626;23.380;2023-07-13T08:02:43;94481.50;;;32.96;58.32
11077;BME280;5591;42.626;23.380;2023-07-13T08:05:11;94473.00;;;33.06;58.21
11077;BME280;5591;42.626;23.380;2023-07-13T08:07:38;94482.94;;;32.85;59.92
11077;BME280;5591;42.626;23.380;2023-07-13T08:10:06;94461.47;;;33.26;57.45
11077;BME280;5591;42.626;23.380;2023-07-13T08:12:34;94463.72;;;32.99;59.13
11077;BME280;5591;42.626;23.380;2023-07-13T08:15:03;94459.69;;;33.13;58.83
11077;BME280;5591;42.626;23.380;2023-07-13T08:17:31;94452.50;;;33.26;58.13
11077;BME280;5591;42.626;23.380;2023-07-13T08:19:57;94452.25;;;33.65;57.98
11077;BME280;5591;42.626;23.380;2023-07-13T08:22:24;94447.81;;;33.43;58.35
11077;BME280;5591;42.626;23.380;2023-07-13T08:24:51;94456.66;;;33.23;58.16
11077;BME280;5591;42.626;23.380;2023-07-13T08:27:22;94451.75;;;33.63;56.88
11077;BME280;5591;42.626;23.380;2023-07-13T08:29:49;94441.97;;;33.79;55.50
11077;BME280;5591;42.626;23.380;2023-07-13T08:32:17;94462.06;;;34.03;53.44
11077;BME280;5591;42.626;23.380;2023-07-13T08:34:45;94410.06;;;33.33;56.04
11077;BME280;5591;42.626;23.380;2023-07-13T08:37:13;94443.78;;;33.58;55.47
11077;BME280;5591;42.626;23.380;2023-07-13T08:39:40;94444.94;;;33.40;55.02
11077;BME280;5591;42.626;23.380;2023-07-13T08:42:12;94440.13;;;33.54;54.15
11077;BME280;5591;42.626;23.380;2023-07-13T08:45:04;94441.56;;;33.97;52.20
11077;BME280;5591;42.626;23.380;2023-07-13T08:47:39;94436.44;;;33.96;52.30
11077;BME280;5591;42.626;23.380;2023-07-13T08:50:11;94431.75;;;33.76;53.03
11077;BME280;5591;42.626;23.380;2023-07-13T08:52:40;94443.38;;;34.22;52.39
11077;BME280;5591;42.626;23.380;2023-07-13T08:55:12;94407.84;;;33.81;51.80
11077;BME280;5591;42.626;23.380;2023-07-13T08:57:41;94440.13;;;33.54;52.96
11077;BME280;5591;42.626;23.380;2023-07-13T09:00:10;94444.81;;;33.91;51.55
11077;BME280;5591;42.626;23.380;2023-07-13T09:02:43;94445.81;;;33.78;51.99
11077;BME280;5591;42.626;23.380;2023-07-13T09:05:14;94446.59;;;34.16;52.00
11077;BME280;5591;42.626;23.380;2023-07-13T09:07:57;94454.22;;;34.02;50.33
11077;BME280;5591;42.626;23.380;2023-07-13T09:10:29;94459.91;;;34.17;50.18
11077;BME280;5591;42.626;23.380;2023-07-13T09:13:10;94462.06;;;34.03;50.29
11077;BME280;5591;42.626;23.380;2023-07-13T09:15:44;94478.53;;;34.44;49.23
11077;BME280;5591;42.626;23.380;2023-07-13T09:18:16;94467.91;;;34.80;47.99
11077;BME280;5591;42.626;23.380;2023-07-13T09:20:48;94475.53;;;34.66;48.11
11077;BME280;5591;42.626;23.380;2023-07-13T09:23:19;94474.63;;;34.82;48.44
11077;BME280;5591;42.626;23.380;2023-07-13T09:25:48;94476.84;;;34.60;48.23
11077;BME280;5591;42.626;23.380;2023-07-13T09:28:22;94472.81;;;34.37;48.99
11077;BME280;5591;42.626;23.380;2023-07-13T09:30:52;94470.69;;;34.71;46.99
11077;BME280;5591;42.626;23.380;2023-07-13T09:33:22;94471.78;;;35.20;46.17
11077;BME280;5591;42.626;23.380;2023-07-13T09:35:49;94471.59;;;35.69;44.83
11077;BME280;5591;42.626;23.380;2023-07-13T09:38:18;94479.06;;;35.60;45.81
11077;BME280;5591;42.626;23.380;2023-07-13T09:41:06;94475.97;;;35.94;44.21
11077;BME280;5591;42.626;23.380;2023-07-13T09:43:36;94412.22;;;35.58;44.57
11077;BME280;5591;42.626;23.380;2023-07-13T09:46:03;94461.53;;;36.06;44.82
11077;BME280;5591;42.626;23.380;2023-07-13T09:48:35;94452.44;;;36.38;43.92
11077;BME280;5591;42.626;23.380;2023-07-13T09:51:09;94460.72;;;36.77;43.21
11077;BME280;5591;42.626;23.380;2023-07-13T09:53:41;94448.78;;;36.58;42.82
11077;BME280;5591;42.626;23.380;2023-07-13T09:56:19;94444.09;;;36.34;42.95
11077;BME280;5591;42.626;23.380;2023-07-13T09:58:46;94441.56;;;36.77;42.01
11077;BME280;5591;42.626;23.380;2023-07-13T10:01:13;94435.91;;;36.98;42.42
11077;BME280;5591;42.626;23.380;2023-07-13T10:03:52;94433.63;;;36.24;42.83
11077;BME280;5591;42.626;23.380;2023-07-13T10:06:21;94428.16;;;36.88;41.67
11077;BME280;5591;42.626;23.380;2023-07-13T10:08:50;94433.78;;;36.79;41.68
11077;BME280;5591;42.626;23.380;2023-07-13T10:11:19;94423.09;;;37.14;41.56
11077;BME280;5591;42.626;23.380;2023-07-13T10:13:51;94421.38;;;37.37;40.53
11077;BME280;5591;42.626;23.380;2023-07-13T10:16:19;94414.88;;;37.14;40.28
11077;BME280;5591;42.626;23.380;2023-07-13T10:18:50;94420.47;;;37.17;39.96
11077;BME280;5591;42.626;23.380;2023-07-13T10:21:20;94371.69;;;36.95;40.34
11077;BME280;5591;42.626;23.380;2023-07-13T10:23:50;94414.09;;;37.56;40.18
11077;BME280;5591;42.626;23.380;2023-07-13T10:26:22;94410.59;;;37.71;38.57
11077;BME280;5591;42.626;23.380;2023-07-13T10:28:53;94416.19;;;37.74;38.72
11077;BME280;5591;42.626;23.380;2023-07-13T10:31:22;94397.94;;;37.82;38.99
11077;BME280;5591;42.626;23.380;2023-07-13T10:33:51;94406.00;;;38.37;38.51
11077;BME280;5591;42.626;23.380;2023-07-13T10:36:28;94410.00;;;38.58;37.62
11077;BME280;5591;42.626;23.380;2023-07-13T10:39:00;94399.53;;;38.29;37.89
11077;BME280;5591;42.626;23.380;2023-07-13T10:41:29;94404.16;;;37.94;38.81
11077;BME280;5591;42.626;23.380;2023-07-13T10:43:58;94397.75;;;37.90;38.42
11077;BME280;5591;42.626;23.380;2023-07-13T10:46:27;94389.06;;;38.35;37.94
11077;BME280;5591;42.626;23.380;2023-07-13T10:48:58;94389.16;;;38.73;36.95
11077;BME280;5591;42.626;23.380;2023-07-13T10:51:27;94392.38;;;38.94;37.36
11077;BME280;5591;42.626;23.380;2023-07-13T10:54:15;94385.28;;;38.93;36.29
11077;BME280;5591;42.626;23.380;2023-07-13T10:56:43;94379.41;;;38.41;36.17
11077;BME280;5591;42.626;23.380;2023-07-13T10:59:12;94369.72;;;39.00;35.52
11077;BME280;5591;42.626;23.380;2023-07-13T11:01:50;94368.69;;;38.51;36.41
11077;BME280;5591;42.626;23.380;2023-07-13T11:04:20;94349.44;;;38.86;35.66
11077;BME280;5591;42.626;23.380;2023-07-13T11:06:50;94355.91;;;39.16;35.66
11077;BME280;5591;42.626;23.380;2023-07-13T11:09:31;94363.34;;;38.24;36.16
11077;BME280;5591;42.626;23.380;2023-07-13T11:12:00;94363.22;;;38.89;35.81
11077;BME280;5591;42.626;23.380;2023-07-13T11:14:31;94305.88;;;39.07;34.85
11077;BME280;5591;42.626;23.380;2023-07-13T11:17:24;94353.00;;;39.47;33.73
11077;BME280;5591;42.626;23.380;2023-07-13T11:20:09;94334.06;;;39.87;34.38
11077;BME280;5591;42.626;23.380;2023-07-13T11:22:44;94336.00;;;39.86;33.34
11077;BME280;5591;42.626;23.380;2023-07-13T11:25:27;94339.63;;;39.68;32.08
11077;BME280;5591;42.626;23.380;2023-07-13T11:28:11;94245.94;;;39.12;31.44
11077;BME280;5591;42.626;23.380;2023-07-13T11:30:42;94344.47;;;39.74;32.11
11077;BME280;5591;42.626;23.380;2023-07-13T11:33:21;94335.75;;;39.08;32.50
11077;BME280;5591;42.626;23.380;2023-07-13T11:36:00;94332.41;;;40.05;32.36
11077;BME280;5591;42.626;23.380;2023-07-13T11:38:32;94349.91;;;40.71;32.13
11077;BME280;5591;42.626;23.380;2023-07-13T11:41:04;94284.13;;;41.72;30.68
11077;BME280;5591;42.626;23.380;2023-07-13T11:43:31;94325.31;;;43.30;28.88
11077;BME280;5591;42.626;23.380;2023-07-13T11:46:12;94280.72;;;44.01;27.37
11077;BME280;5591;42.626;23.380;2023-07-13T11:48:39;94319.03;;;44.66;26.21
11077;BME280;5591;42.626;23.380;2023-07-13T11:51:17;94325.56;;;45.96;24.72
11077;BME280;5591;42.626;23.380;2023-07-13T11:53:48;94314.38;;;46.88;24.84
11077;BME280;5591;42.626;23.380;2023-07-13T11:56:16;94317.72;;;47.05;24.99
11077;BME280;5591;42.626;23.380;2023-07-13T11:58:43;94310.25;;;46.99;24.65
11077;BME280;5591;42.626;23.380;2023-07-13T12:01:17;94320.56;;;47.32;24.39
11077;BME280;5591;42.626;23.380;2023-07-13T12:03:46;94311.44;;;47.88;23.24
11077;BME280;5591;42.626;23.380;2023-07-13T12:06:26;94310.75;;;48.07;22.51
11077;BME280;5591;42.626;23.380;2023-07-13T12:08:56;94322.69;;;46.51;23.67
11077;BME280;5591;42.626;23.380;2023-07-13T12:11:24;94309.78;;;47.37;22.79
11077;BME280;5591;42.626;23.380;2023-07-13T12:13:51;94308.56;;;48.64;22.20
11077;BME280;5591;42.626;23.380;2023-07-13T12:16:25;94304.97;;;48.63;22.30
11077;BME280;5591;42.626;23.380;2023-07-13T12:18:54;94308.94;;;47.70;22.73
11077;BME280;5591;42.626;23.380;2023-07-13T12:21:30;94293.41;;;48.65;21.97
11077;BME280;5591;42.626;23.380;2023-07-13T12:23:57;94295.22;;;49.33;21.84
11077;BME280;5591;42.626;23.380;2023-07-13T12:26:24;94284.34;;;50.22;21.41
11077;BME280;5591;42.626;23.380;2023-07-13T12:28:53;94290.09;;;50.31;21.23
11077;BME280;5591;42.626;23.380;2023-07-13T12:31:30;94274.69;;;51.53;19.60
11077;BME280;5591;42.626;23.380;2023-07-13T12:33:59;94225.09;;;51.12;19.89
11077;BME280;5591;42.626;23.380;2023-07-13T12:36:31;94275.03;;;51.42;19.70
11077;BME280;5591;42.626;23.380;2023-07-13T12:39:04;94274.53;;;52.78;19.00
11077;BME280;5591;42.626;23.380;2023-07-13T12:41:32;94280.16;;;52.65;19.25
11077;BME280;5591;42.626;23.380;2023-07-13T12:44:00;94273.88;;;53.08;18.28
11077;BME280;5591;42.626;23.380;2023-07-13T12:46:27;94275.13;;;51.64;19.01
11077;BME280;5591;42.626;23.380;2023-07-13T12:48:57;94266.28;;;52.03;18.58
11077;BME280;5591;42.626;23.380;2023-07-13T12:51:26;94268.81;;;52.81;18.54
11077;BME280;5591;42.626;23.380;2023-07-13T12:53:57;94266.38;;;52.92;17.81
11077;BME280;5591;42.626;23.380;2023-07-13T12:56:27;94260.31;;;53.15;17.85
11077;BME280;5591;42.626;23.380;2023-07-13T12:58:58;94257.63;;;52.69;18.17
11077;BME280;5591;42.626;23.380;2023-07-13T13:01:27;94264.91;;;53.43;17.90
11077;BME280;5591;42.626;23.380;2023-07-13T13:03:55;94262.03;;;52.11;18.42
11077;BME280;5591;42.626;23.380;2023-07-13T13:06:25;94257.56;;;52.81;18.69
11077;BME280;5591;42.626;23.380;2023-07-13T13:08:52;94250.56;;;51.30;18.94